Nearby METAR Reports

 

KAVP - Avoca/Wilkes B., Pennsylvania, USA
Distance from station: SW 13mi, 22km
Updated: Sun, 31-May-2020 15:54 EDT
Few Clouds
Few Clouds
 Wind from NW
Wind: NW 17 mph , 28 km/h, Gust: 22 mph , 35 km/h
Temperature: 64°F , 18°C
Dew Point: 36°F , 2°C
Humidity: 34%
Barometer: 30.13 inHg , 1020.3 hPa
Clouds: Few Clouds
Visibility: 10 miles , 16 km
Cloud details: Few Clouds 7500 ft
2020/05/31 19:54 KAVP 311954Z 32015G19KT 10SM FEW075 18/02 A3013 RMK AO2 SLP201 T01830022 $
KMPO - Mt. Pocono, Pennsylvania, USA
Distance from station: SSE 26mi, 43km
Updated: Sun, 31-May-2020 15:53 EDT
Mostly cloudy
Mostly cloudy
 Wind from NW
Wind: NW 21 mph , 33 km/h, Gust: 28 mph , 44 km/h
Temperature: 57°F , 14°C
Dew Point: 34°F , 1°C
Humidity: 41%
Barometer: 30.11 inHg , 1019.6 hPa
Clouds: Mostly cloudy
Visibility: 10 miles , 16 km
Cloud details: Mostly cloudy 6500 ft
2020/05/31 19:53 KMPO 311953Z AUTO 32018G24KT 10SM BKN065 14/01 A3011 RMK AO2 PK WND 31026/1933 SLP199 T01440006 $
 
KMSV - Monticello, New York, USA
Distance from station: ENE 43mi, 69km
Updated: Sun, 31-May-2020 15:56 EDT
Mostly cloudy
Mostly cloudy
 Wind from WNW
Wind: WNW 17 mph , 28 km/h, Gust: 25 mph , 41 km/h
Temperature: 57°F , 14°C
Dew Point: 32°F , 0°C
Humidity: 39%
Barometer: 30.12 inHg , 1020 hPa
Clouds: Mostly cloudy
Visibility: 10 miles , 16 km
Cloud details: Mostly cloudy 6500 ft
Mostly cloudy 8000 ft
2020/05/31 19:56 KMSV 311956Z AUTO 30015G22KT 10SM BKN065 BKN080 14/00 A3012 RMK AO2 SLP202 T01390000
KFWN - Sussex, New Jersey, USA
Distance from station: ESE 52mi, 84km
Updated: Sun, 31-May-2020 15:53 EDT
Mostly cloudy
Mostly cloudy
 Wind from NW
Wind: NW 10 mph , 17 km/h, Gust: 21 mph , 33 km/h
Temperature: 64°F , 18°C
Dew Point: 36°F , 2°C
Humidity: 34%
Barometer: 30.10 inHg , 1019.3 hPa
Clouds: Mostly cloudy
Visibility: 10 miles , 16 km
Cloud details: Mostly cloudy 7500 ft
2020/05/31 19:53 KFWN 311953Z AUTO 31009G18KT 270V340 10SM BKN075 18/02 A3010 RMK AO2 SLP191 T01830017 $
 
K12N - Andover, New Jersey, USA
Distance from station: SE 54mi, 87km
Updated: Sun, 31-May-2020 15:54 EDT

 Wind from NW
Wind: NW 8 mph , 13 km/h
Temperature: 66°F , 19°C
Dew Point: 36°F , 2°C
Humidity: 32%
Barometer: 30.09 inHg , 1019 hPa
2020/05/31 19:54 K12N 311954Z AUTO 32007KT 260V010 19/02 A3009 RMK AO1 SLP186 T01940017
KBGM - Binghamton, New York, USA
Distance from station: NNW 55mi, 88km
Updated: Sun, 31-May-2020 15:53 EDT
Mostly cloudy
Mostly cloudy
 Wind from N
Wind: N 20 mph , 31 km/h, Gust: 25 mph , 41 km/h
Temperature: 54°F , 12°C
Dew Point: 34°F , 1°C
Humidity: 47%
Barometer: 30.15 inHg , 1021 hPa
Clouds: Mostly cloudy
Visibility: 10 miles , 16 km
Cloud details: Partly cloudy 4900 ft
Mostly cloudy 6000 ft
2020/05/31 19:53 KBGM 311953Z 35017G22KT 10SM SCT049 BKN060 12/01 A3015 RMK AO2 SLP216 T01220006
 
KABE - Allentown, Pennsylvania, USA
Distance from station: S 58mi, 94km
Updated: Sun, 31-May-2020 15:51 EDT
Partly cloudy
Partly cloudy
 Wind from NNW
Wind: NNW 8 mph , 13 km/h
Temperature: 66°F , 19°C
Dew Point: 37°F , 3°C
Humidity: 35%
Barometer: 30.09 inHg , 1019 hPa
Clouds: Partly cloudy
Visibility: 10 miles , 16 km
Cloud details: Partly cloudy 8000 ft
2020/05/31 19:51 KABE 311951Z 33007KT 10SM SCT080 19/03 A3009 RMK AO2 SLP190 T01940033
KXLL - Allentown Queen, Pennsylvania, USA
Distance from station: S 64mi, 103km
Updated: Sun, 31-May-2020 15:55 EDT
Partly cloudy
Partly cloudy
 Wind from NNW
Wind: NNW 9 mph , 15 km/h
Temperature: 64°F , 18°C
Dew Point: 37°F , 3°C
Humidity: 37%
Barometer: 30.11 inHg , 1019.6 hPa
Clouds: Partly cloudy
Visibility: 10 miles , 16 km
Cloud details: Partly cloudy 8000 ft
2020/05/31 19:55 KXLL 311955Z AUTO 34008KT 10SM SCT080 18/03 A3011 RMK AO2
 
KMGJ - Montgomery, New York, USA
Distance from station: E 67mi, 108km
Updated: Sun, 31-May-2020 15:54 EDT
Mostly cloudy
Mostly cloudy
 Wind from WNW
Wind: WNW 16 mph , 26 km/h, Gust: 23 mph , 37 km/h
Temperature: 64°F , 18°C
Dew Point: 36°F , 2°C
Humidity: 34%
Barometer: 30.07 inHg , 1018.3 hPa
Clouds: Mostly cloudy
Visibility: 10 miles , 16 km
Cloud details: Mostly cloudy 8000 ft
2020/05/31 19:54 KMGJ 311954Z AUTO 29014G20KT 10SM BKN080 18/02 A3007 RMK AO2 SLP183 T01830022
KIPT - Williamsport, Pennsylvania, USA
Distance from station: WSW 72mi, 116km
Updated: Sun, 31-May-2020 15:54 EDT
Clear
Clear
 Wind from NW
Wind: NW 12 mph , 19 km/h, Gust: 22 mph , 35 km/h
Temperature: 66°F , 19°C
Dew Point: 32°F , 0°C
Humidity: 28%
Barometer: 30.13 inHg , 1020.3 hPa
Clouds: Clear
Visibility: 10 miles , 16 km
2020/05/31 19:54 KIPT 311954Z 32010G19KT 10SM CLR 19/00 A3013 RMK AO2 SLP202 T01940000 $
 
KUKT - Quakertown Arp, Pennsylvania, USA
Distance from station: S 74mi, 119km
Updated: Sun, 31-May-2020 15:55 EDT
Mostly cloudy
Mostly cloudy
 Wind from varies
Wind: varies 7 mph , 11 km/h, Gust: 15 mph , 24 km/h
Temperature: 68°F , 20°C
Dew Point: 39°F , 4°C
Humidity: 35%
Barometer: 30.10 inHg , 1019.3 hPa
Clouds: Mostly cloudy
Visibility: 10 miles , 16 km
Cloud details: Partly cloudy 7000 ft
Mostly cloudy 8500 ft
2020/05/31 19:55 KUKT 311955Z AUTO VRB06G13KT 10SM SCT070 BKN085 20/04 A3010 RMK A01
KSMQ - Somerville, New Jersey, USA
Distance from station: SE 76mi, 123km
Updated: Sun, 31-May-2020 15:53 EDT
Few Clouds
Few Clouds
 Wind from WNW
Wind: WNW 13 mph , 20 km/h, Gust: 22 mph , 35 km/h
Temperature: 70°F , 21°C
Dew Point: 37°F , 3°C
Humidity: 31%
Barometer: 30.06 inHg , 1017.9 hPa
Clouds: Few Clouds
Visibility: 10 miles , 16 km
Cloud details: Few Clouds 8000 ft
2020/05/31 19:53 KSMQ 311953Z AUTO 30011G19KT 260V320 10SM FEW080 21/03 A3006 RMK AO2 SLP179 T02110033
 
KSWF - Newburgh/Stewart, New York, USA
Distance from station: E 77mi, 123km
Updated: Sun, 31-May-2020 15:45 EDT
Partly cloudy
Partly cloudy
 Wind from WNW
Wind: WNW 18 mph , 30 km/h, Gust: 28 mph , 44 km/h
Temperature: 66°F , 19°C
Dew Point: 37°F , 3°C
Humidity: 35%
Barometer: 30.07 inHg , 1018.3 hPa
Clouds: Partly cloudy
Visibility: 20 miles , 32 km
Cloud details: Partly cloudy 6000 ft
2020/05/31 19:45 KSWF 311945Z 29016G24KT 20SM SCT060 19/03 A3007
KMMU - Morristown Muni, New Jersey, USA
Distance from station: SE 77mi, 124km
Updated: Sun, 31-May-2020 14:50 EDT
NOT Current
Few Clouds
Few Clouds
 Wind from N
Wind: N 9 mph , 15 km/h, Gust: 24 mph , 39 km/h
Temperature: 68°F , 20°C
Dew Point: 39°F , 4°C
Humidity: 35%
Barometer: 30.07 inHg , 1018.3 hPa
Clouds: Few Clouds
Visibility: 10 miles , 16 km
Cloud details: Few Clouds 5000 ft
2020/05/31 18:50 KMMU 311850Z 35008G21KT 10SM FEW050 20/04 A3007
 
KCDW - Caldwell, New Jersey, USA
Distance from station: ESE 79mi, 127km
Updated: Sun, 31-May-2020 15:53 EDT
Mostly cloudy
Mostly cloudy
 Wind from N
Wind: N 10 mph , 17 km/h, Gust: 23 mph , 37 km/h
Temperature: 70°F , 21°C
Dew Point: 34°F , 1°C
Humidity: 27%
Barometer: 30.07 inHg , 1018.3 hPa
Clouds: Mostly cloudy
Visibility: 10 miles , 16 km
Cloud details: Mostly cloudy 7500 ft
2020/05/31 19:53 KCDW 311953Z 35009G20KT 310V040 10SM BKN075 21/01 A3007 RMK AO2 SLP185 T02110011
KRDG - Reading, Pennsylvania, USA
Distance from station: SSW 80mi, 130km
Updated: Sun, 31-May-2020 15:54 EDT
Mostly cloudy
Mostly cloudy
 Wind from WNW
Wind: WNW 13 mph , 20 km/h, Gust: 23 mph , 37 km/h
Temperature: 68°F , 20°C
Dew Point: 36°F , 2°C
Humidity: 30%
Barometer: 30.09 inHg , 1019 hPa
Clouds: Mostly cloudy
Visibility: 10 miles , 16 km
Cloud details: Mostly cloudy 8000 ft
2020/05/31 19:54 KRDG 311954Z AUTO 30011G20KT 10SM BKN080 20/02 A3009 RMK AO2 SLP194 T02000022
 
KITH - Ithaca/Tompkins, New York, USA
Distance from station: NW 81mi, 131km
Updated: Sun, 31-May-2020 15:56 EDT
Partly cloudy
Partly cloudy
 Wind from NNW
Wind: NNW 18 mph , 30 km/h, Gust: 25 mph , 41 km/h
Temperature: 57°F , 14°C
Dew Point: 34°F , 1°C
Humidity: 41%
Barometer: 30.18 inHg , 1022 hPa
Clouds: Partly cloudy
Visibility: 10 miles , 16 km
Cloud details: Partly cloudy 5500 ft
2020/05/31 19:56 KITH 311956Z 33016G22KT 10SM SCT055 14/01 A3018 RMK AO2 SLP223 T01390011
KSEG - Selinsgrove, Pennsylvania, USA
Distance from station: SW 82mi, 132km
Updated: Sun, 31-May-2020 15:53 EDT
Mostly cloudy
Mostly cloudy
 Wind from NNW
Wind: NNW 8 mph , 13 km/h, Gust: 21 mph , 33 km/h
Temperature: 70°F , 21°C
Dew Point: 34°F , 1°C
Humidity: 27%
Barometer: 30.12 inHg , 1020 hPa
Clouds: Mostly cloudy
Visibility: 10 miles , 16 km
Cloud details: Mostly cloudy 9000 ft
2020/05/31 19:53 KSEG 311953Z AUTO 34007G18KT 10SM BKN090 21/01 A3012 RMK AO2 SLP199 T02060011
 
KELM - Elmira, New York, USA
Distance from station: WNW 82mi, 133km
Updated: Sun, 31-May-2020 15:53 EDT
Mostly cloudy
Mostly cloudy
 Wind from N
Wind: N 13 mph , 20 km/h, Gust: 17 mph , 28 km/h
Temperature: 57°F , 14°C
Dew Point: 36°F , 2°C
Humidity: 44%
Barometer: 30.18 inHg , 1022 hPa
Clouds: Mostly cloudy
Visibility: 10 miles , 16 km
Cloud details: Partly cloudy 5500 ft
Mostly cloudy 7000 ft
2020/05/31 19:53 KELM 311953Z 36011G15KT 10SM SCT055 BKN070 14/02 A3018 RMK AO2 SLP219 T01440022
KDYL - Doylestown, Pennsylvania, USA
Distance from station: SSE 83mi, 134km
Updated: Sun, 31-May-2020 15:54 EDT
Mostly cloudy
Mostly cloudy
 Wind from N
Wind: N 13 mph , 20 km/h, Gust: 20 mph , 31 km/h
Temperature: 72°F , 22°C
Dew Point: 37°F , 3°C
Humidity: 29%
Barometer: 30.08 inHg , 1018.6 hPa
Clouds: Mostly cloudy
Visibility: 10 miles , 16 km
Cloud details: Mostly cloudy 7500 ft
2020/05/31 19:54 KDYL 311954Z AUTO 36011G17KT 10SM BKN075 22/03 A3008 RMK AO2 SLP183 T02220028